sensor_id;sensor_type;location;lat;lon;timestamp;P1;durP1;ratioP1;P2;durP2;ratioP2
60896;SDS011;46749;32.932;-117.130;2023-04-29T00:01:26;0.50;;;0.40;;
60896;SDS011;46749;32.932;-117.130;2023-04-29T00:03:52;0.98;;;0.30;;
60896;SDS011;46749;32.932;-117.130;2023-04-29T00:06:19;0.40;;;0.30;;
60896;SDS011;46749;32.932;-117.130;2023-04-29T00:08:46;1.67;;;0.30;;
60896;SDS011;46749;32.932;-117.130;2023-04-29T00:11:13;0.25;;;0.20;;
60896;SDS011;46749;32.932;-117.130;2023-04-29T00:13:39;0.55;;;0.30;;
60896;SDS011;46749;32.932;-117.130;2023-04-29T00:16:06;0.30;;;0.25;;
60896;SDS011;46749;32.932;-117.130;2023-04-29T00:18:34;1.55;;;0.30;;
60896;SDS011;46749;32.932;-117.130;2023-04-29T00:21:02;0.52;;;0.40;;
60896;SDS011;46749;32.932;-117.130;2023-04-29T00:23:34;0.50;;;0.40;;
60896;SDS011;46749;32.932;-117.130;2023-04-29T00:26:01;0.20;;;0.20;;
60896;SDS011;46749;32.932;-117.130;2023-04-29T00:28:27;1.27;;;0.30;;
60896;SDS011;46749;32.932;-117.130;2023-04-29T00:30:54;0.30;;;0.30;;
60896;SDS011;46749;32.932;-117.130;2023-04-29T00:33:21;0.40;;;0.20;;
60896;SDS011;46749;32.932;-117.130;2023-04-29T00:35:47;1.38;;;0.30;;
60896;SDS011;46749;32.932;-117.130;2023-04-29T00:38:13;0.65;;;0.30;;
60896;SDS011;46749;32.932;-117.130;2023-04-29T00:40:40;0.30;;;0.30;;
60896;SDS011;46749;32.932;-117.130;2023-04-29T00:43:08;1.02;;;0.38;;
60896;SDS011;46749;32.932;-117.130;2023-04-29T00:45:34;0.98;;;0.38;;
60896;SDS011;46749;32.932;-117.130;2023-04-29T00:48:00;0.50;;;0.30;;
60896;SDS011;46749;32.932;-117.130;2023-04-29T00:50:26;0.88;;;0.38;;
60896;SDS011;46749;32.932;-117.130;2023-04-29T00:52:53;0.55;;;0.30;;
60896;SDS011;46749;32.932;-117.130;2023-04-29T00:55:19;2.33;;;0.40;;
60896;SDS011;46749;32.932;-117.130;2023-04-29T00:57:47;2.05;;;0.50;;
60896;SDS011;46749;32.932;-117.130;2023-04-29T01:00:16;0.88;;;0.32;;
60896;SDS011;46749;32.932;-117.130;2023-04-29T01:02:43;0.60;;;0.57;;
60896;SDS011;46749;32.932;-117.130;2023-04-29T01:05:11;0.30;;;0.30;;
60896;SDS011;46749;32.932;-117.130;2023-04-29T01:10:14;0.47;;;0.40;;
60896;SDS011;46749;32.932;-117.130;2023-04-29T01:12:53;0.60;;;0.30;;
60896;SDS011;46749;32.932;-117.130;2023-04-29T01:15:59;0.52;;;0.38;;
60896;SDS011;46749;32.932;-117.130;2023-04-29T01:18:24;1.50;;;0.70;;
60896;SDS011;46749;32.932;-117.130;2023-04-29T01:20:55;1.10;;;0.40;;
60896;SDS011;46749;32.932;-117.130;2023-04-29T01:23:26;0.88;;;0.40;;
60896;SDS011;46749;32.932;-117.130;2023-04-29T01:25:53;0.73;;;0.32;;
60896;SDS011;46749;32.932;-117.130;2023-04-29T01:28:41;1.08;;;0.32;;
60896;SDS011;46749;32.932;-117.130;2023-04-29T01:31:27;0.55;;;0.30;;
60896;SDS011;46749;32.932;-117.130;2023-04-29T01:34:10;0.95;;;0.57;;
60896;SDS011;46749;32.932;-117.130;2023-04-29T01:36:52;0.30;;;0.30;;
60896;SDS011;46749;32.932;-117.130;2023-04-29T01:39:44;0.93;;;0.43;;
60896;SDS011;46749;32.932;-117.130;2023-04-29T01:45:26;0.50;;;0.40;;
60896;SDS011;46749;32.932;-117.130;2023-04-29T01:47:53;0.75;;;0.40;;
60896;SDS011;46749;32.932;-117.130;2023-04-29T01:50:23;0.32;;;0.30;;
60896;SDS011;46749;32.932;-117.130;2023-04-29T01:52:49;0.47;;;0.40;;
60896;SDS011;46749;32.932;-117.130;2023-04-29T01:55:15;0.60;;;0.30;;
60896;SDS011;46749;32.932;-117.130;2023-04-29T01:57:42;0.40;;;0.30;;
60896;SDS011;46749;32.932;-117.130;2023-04-29T02:00:08;0.52;;;0.52;;
60896;SDS011;46749;32.932;-117.130;2023-04-29T02:02:36;0.88;;;0.43;;
60896;SDS011;46749;32.932;-117.130;2023-04-29T02:05:02;0.80;;;0.30;;
60896;SDS011;46749;32.932;-117.130;2023-04-29T02:07:28;1.17;;;0.50;;
60896;SDS011;46749;32.932;-117.130;2023-04-29T02:09:55;0.30;;;0.30;;
60896;SDS011;46749;32.932;-117.130;2023-04-29T02:12:21;0.40;;;0.30;;
60896;SDS011;46749;32.932;-117.130;2023-04-29T02:14:50;0.60;;;0.30;;
60896;SDS011;46749;32.932;-117.130;2023-04-29T02:17:17;0.50;;;0.28;;
60896;SDS011;46749;32.932;-117.130;2023-04-29T02:19:43;1.27;;;0.45;;
60896;SDS011;46749;32.932;-117.130;2023-04-29T02:22:10;0.32;;;0.30;;
60896;SDS011;46749;32.932;-117.130;2023-04-29T02:24:37;0.77;;;0.38;;
60896;SDS011;46749;32.932;-117.130;2023-04-29T02:27:03;1.52;;;0.45;;
60896;SDS011;46749;32.932;-117.130;2023-04-29T02:29:31;0.32;;;0.30;;
60896;SDS011;46749;32.932;-117.130;2023-04-29T02:31:57;0.40;;;0.40;;
60896;SDS011;46749;32.932;-117.130;2023-04-29T02:34:24;0.22;;;0.20;;
60896;SDS011;46749;32.932;-117.130;2023-04-29T02:36:50;0.35;;;0.30;;
60896;SDS011;46749;32.932;-117.130;2023-04-29T02:39:16;0.52;;;0.30;;
60896;SDS011;46749;32.932;-117.130;2023-04-29T02:41:42;0.20;;;0.20;;
60896;SDS011;46749;32.932;-117.130;2023-04-29T02:44:08;0.30;;;0.30;;
60896;SDS011;46749;32.932;-117.130;2023-04-29T02:46:35;0.10;;;0.10;;
60896;SDS011;46749;32.932;-117.130;2023-04-29T02:49:01;0.30;;;0.30;;
60896;SDS011;46749;32.932;-117.130;2023-04-29T02:51:28;0.50;;;0.35;;
60896;SDS011;46749;32.932;-117.130;2023-04-29T02:53:55;0.55;;;0.40;;
60896;SDS011;46749;32.932;-117.130;2023-04-29T02:56:21;0.75;;;0.20;;
60896;SDS011;46749;32.932;-117.130;2023-04-29T02:58:47;1.23;;;0.30;;
60896;SDS011;46749;32.932;-117.130;2023-04-29T03:01:14;0.65;;;0.28;;
60896;SDS011;46749;32.932;-117.130;2023-04-29T03:03:40;0.30;;;0.20;;
60896;SDS011;46749;32.932;-117.130;2023-04-29T03:06:06;0.28;;;0.28;;
60896;SDS011;46749;32.932;-117.130;2023-04-29T03:08:32;0.70;;;0.30;;
60896;SDS011;46749;32.932;-117.130;2023-04-29T03:11:00;0.45;;;0.20;;
60896;SDS011;46749;32.932;-117.130;2023-04-29T03:13:26;0.45;;;0.30;;
60896;SDS011;46749;32.932;-117.130;2023-04-29T03:15:52;0.85;;;0.20;;
60896;SDS011;46749;32.932;-117.130;2023-04-29T03:18:18;0.25;;;0.20;;
60896;SDS011;46749;32.932;-117.130;2023-04-29T03:20:45;0.28;;;0.28;;
60896;SDS011;46749;32.932;-117.130;2023-04-29T03:23:11;0.20;;;0.20;;
60896;SDS011;46749;32.932;-117.130;2023-04-29T03:25:37;0.75;;;0.25;;
60896;SDS011;46749;32.932;-117.130;2023-04-29T03:28:04;0.30;;;0.20;;
60896;SDS011;46749;32.932;-117.130;2023-04-29T03:30:31;0.20;;;0.20;;
60896;SDS011;46749;32.932;-117.130;2023-04-29T03:32:57;0.20;;;0.20;;
60896;SDS011;46749;32.932;-117.130;2023-04-29T03:35:23;0.20;;;0.20;;
60896;SDS011;46749;32.932;-117.130;2023-04-29T03:37:49;0.30;;;0.30;;
60896;SDS011;46749;32.932;-117.130;2023-04-29T03:40:16;0.30;;;0.30;;
60896;SDS011;46749;32.932;-117.130;2023-04-29T03:42:42;0.30;;;0.30;;
60896;SDS011;46749;32.932;-117.130;2023-04-29T03:45:08;0.63;;;0.30;;
60896;SDS011;46749;32.932;-117.130;2023-04-29T03:47:37;0.95;;;0.30;;
60896;SDS011;46749;32.932;-117.130;2023-04-29T03:50:03;0.20;;;0.20;;
60896;SDS011;46749;32.932;-117.130;2023-04-29T03:52:30;0.20;;;0.20;;
60896;SDS011;46749;32.932;-117.130;2023-04-29T03:54:57;0.40;;;0.30;;
60896;SDS011;46749;32.932;-117.130;2023-04-29T03:57:23;0.47;;;0.20;;
60896;SDS011;46749;32.932;-117.130;2023-04-29T03:59:49;0.47;;;0.30;;
60896;SDS011;46749;32.932;-117.130;2023-04-29T04:02:15;0.30;;;0.20;;
60896;SDS011;46749;32.932;-117.130;2023-04-29T04:04:42;0.30;;;0.30;;
60896;SDS011;46749;32.932;-117.130;2023-04-29T04:07:08;0.28;;;0.28;;
60896;SDS011;46749;32.932;-117.130;2023-04-29T04:09:36;0.20;;;0.20;;
60896;SDS011;46749;32.932;-117.130;2023-04-29T04:12:02;0.20;;;0.20;;
60896;SDS011;46749;32.932;-117.130;2023-04-29T04:14:29;0.30;;;0.30;;
60896;SDS011;46749;32.932;-117.130;2023-04-29T04:16:56;0.20;;;0.20;;
60896;SDS011;46749;32.932;-117.130;2023-04-29T04:19:22;0.25;;;0.25;;
60896;SDS011;46749;32.932;-117.130;2023-04-29T04:21:48;0.20;;;0.20;;
60896;SDS011;46749;32.932;-117.130;2023-04-29T04:24:14;0.50;;;0.30;;
60896;SDS011;46749;32.932;-117.130;2023-04-29T04:26:41;0.47;;;0.30;;
60896;SDS011;46749;32.932;-117.130;2023-04-29T04:29:07;0.20;;;0.20;;
60896;SDS011;46749;32.932;-117.130;2023-04-29T04:31:33;0.40;;;0.30;;
60896;SDS011;46749;32.932;-117.130;2023-04-29T04:34:01;0.68;;;0.30;;
60896;SDS011;46749;32.932;-117.130;2023-04-29T04:36:27;0.20;;;0.20;;
60896;SDS011;46749;32.932;-117.130;2023-04-29T04:38:53;0.65;;;0.30;;
60896;SDS011;46749;32.932;-117.130;2023-04-29T04:41:19;0.20;;;0.20;;
60896;SDS011;46749;32.932;-117.130;2023-04-29T04:43:46;0.75;;;0.25;;
60896;SDS011;46749;32.932;-117.130;2023-04-29T04:46:12;0.20;;;0.20;;
60896;SDS011;46749;32.932;-117.130;2023-04-29T04:48:41;0.55;;;0.30;;
60896;SDS011;46749;32.932;-117.130;2023-04-29T04:51:10;0.45;;;0.20;;
60896;SDS011;46749;32.932;-117.130;2023-04-29T04:53:38;0.30;;;0.30;;
60896;SDS011;46749;32.932;-117.130;2023-04-29T04:56:05;0.30;;;0.30;;
60896;SDS011;46749;32.932;-117.130;2023-04-29T04:58:32;0.30;;;0.30;;
60896;SDS011;46749;32.932;-117.130;2023-04-29T05:00:59;0.20;;;0.20;;
60896;SDS011;46749;32.932;-117.130;2023-04-29T05:03:25;0.10;;;0.10;;
60896;SDS011;46749;32.932;-117.130;2023-04-29T05:05:55;0.50;;;0.20;;
60896;SDS011;46749;32.932;-117.130;2023-04-29T05:08:22;0.30;;;0.20;;
60896;SDS011;46749;32.932;-117.130;2023-04-29T05:10:49;0.40;;;0.30;;
60896;SDS011;46749;32.932;-117.130;2023-04-29T05:13:16;0.20;;;0.20;;
60896;SDS011;46749;32.932;-117.130;2023-04-29T05:15:42;0.25;;;0.20;;
60896;SDS011;46749;32.932;-117.130;2023-04-29T05:18:09;0.20;;;0.20;;
60896;SDS011;46749;32.932;-117.130;2023-04-29T05:20:36;0.22;;;0.22;;
60896;SDS011;46749;32.932;-117.130;2023-04-29T05:23:02;0.20;;;0.20;;
60896;SDS011;46749;32.932;-117.130;2023-04-29T05:25:29;0.20;;;0.20;;
60896;SDS011;46749;32.932;-117.130;2023-04-29T05:27:55;0.20;;;0.20;;
60896;SDS011;46749;32.932;-117.130;2023-04-29T05:30:22;0.10;;;0.10;;
60896;SDS011;46749;32.932;-117.130;2023-04-29T05:32:48;0.20;;;0.20;;
60896;SDS011;46749;32.932;-117.130;2023-04-29T05:35:14;0.25;;;0.20;;
60896;SDS011;46749;32.932;-117.130;2023-04-29T05:37:40;0.25;;;0.25;;
60896;SDS011;46749;32.932;-117.130;2023-04-29T05:40:07;0.28;;;0.15;;
60896;SDS011;46749;32.932;-117.130;2023-04-29T05:42:34;0.20;;;0.20;;
60896;SDS011;46749;32.932;-117.130;2023-04-29T05:45:00;0.55;;;0.20;;
60896;SDS011;46749;32.932;-117.130;2023-04-29T05:47:26;0.20;;;0.20;;
60896;SDS011;46749;32.932;-117.130;2023-04-29T05:49:53;0.20;;;0.15;;
60896;SDS011;46749;32.932;-117.130;2023-04-29T05:52:19;0.20;;;0.20;;
60896;SDS011;46749;32.932;-117.130;2023-04-29T05:54:45;0.20;;;0.20;;
60896;SDS011;46749;32.932;-117.130;2023-04-29T05:57:11;0.20;;;0.20;;
60896;SDS011;46749;32.932;-117.130;2023-04-29T05:59:37;0.10;;;0.10;;
60896;SDS011;46749;32.932;-117.130;2023-04-29T06:02:04;0.25;;;0.20;;
60896;SDS011;46749;32.932;-117.130;2023-04-29T06:04:30;0.15;;;0.15;;
60896;SDS011;46749;32.932;-117.130;2023-04-29T06:06:57;0.20;;;0.20;;
60896;SDS011;46749;32.932;-117.130;2023-04-29T06:09:23;0.13;;;0.13;;
60896;SDS011;46749;32.932;-117.130;2023-04-29T06:11:50;0.13;;;0.13;;
60896;SDS011;46749;32.932;-117.130;2023-04-29T06:14:16;0.65;;;0.20;;
60896;SDS011;46749;32.932;-117.130;2023-04-29T06:16:43;0.17;;;0.17;;
60896;SDS011;46749;32.932;-117.130;2023-04-29T06:19:09;0.15;;;0.15;;
60896;SDS011;46749;32.932;-117.130;2023-04-29T06:21:35;0.20;;;0.20;;
60896;SDS011;46749;32.932;-117.130;2023-04-29T06:24:01;0.13;;;0.13;;
60896;SDS011;46749;32.932;-117.130;2023-04-29T06:26:27;0.20;;;0.20;;
60896;SDS011;46749;32.932;-117.130;2023-04-29T06:28:54;0.20;;;0.20;;
60896;SDS011;46749;32.932;-117.130;2023-04-29T06:31:21;0.28;;;0.28;;
60896;SDS011;46749;32.932;-117.130;2023-04-29T06:33:47;0.20;;;0.20;;
60896;SDS011;46749;32.932;-117.130;2023-04-29T06:36:13;0.45;;;0.25;;
60896;SDS011;46749;32.932;-117.130;2023-04-29T06:38:39;0.32;;;0.20;;
60896;SDS011;46749;32.932;-117.130;2023-04-29T06:41:06;0.25;;;0.10;;
60896;SDS011;46749;32.932;-117.130;2023-04-29T06:43:32;0.10;;;0.10;;
60896;SDS011;46749;32.932;-117.130;2023-04-29T06:45:58;0.20;;;0.20;;
60896;SDS011;46749;32.932;-117.130;2023-04-29T06:48:25;0.28;;;0.20;;
60896;SDS011;46749;32.932;-117.130;2023-04-29T06:50:52;0.20;;;0.17;;
60896;SDS011;46749;32.932;-117.130;2023-04-29T06:53:22;0.45;;;0.20;;
60896;SDS011;46749;32.932;-117.130;2023-04-29T06:55:49;0.55;;;0.20;;
60896;SDS011;46749;32.932;-117.130;2023-04-29T06:58:16;0.20;;;0.20;;
60896;SDS011;46749;32.932;-117.130;2023-04-29T07:00:43;0.30;;;0.10;;
60896;SDS011;46749;32.932;-117.130;2023-04-29T07:03:11;0.35;;;0.20;;
60896;SDS011;46749;32.932;-117.130;2023-04-29T07:05:37;0.30;;;0.30;;
60896;SDS011;46749;32.932;-117.130;2023-04-29T07:08:06;0.20;;;0.20;;
60896;SDS011;46749;32.932;-117.130;2023-04-29T07:10:34;0.20;;;0.20;;
60896;SDS011;46749;32.932;-117.130;2023-04-29T07:13:00;0.10;;;0.10;;
60896;SDS011;46749;32.932;-117.130;2023-04-29T07:15:27;0.65;;;0.20;;
60896;SDS011;46749;32.932;-117.130;2023-04-29T07:17:54;0.10;;;0.10;;
60896;SDS011;46749;32.932;-117.130;2023-04-29T07:20:21;0.43;;;0.17;;
60896;SDS011;46749;32.932;-117.130;2023-04-29T07:22:47;0.10;;;0.10;;
60896;SDS011;46749;32.932;-117.130;2023-04-29T07:25:13;0.20;;;0.20;;
60896;SDS011;46749;32.932;-117.130;2023-04-29T07:27:40;0.20;;;0.20;;
60896;SDS011;46749;32.932;-117.130;2023-04-29T07:30:06;0.10;;;0.10;;
60896;SDS011;46749;32.932;-117.130;2023-04-29T07:32:33;0.30;;;0.17;;
60896;SDS011;46749;32.932;-117.130;2023-04-29T07:34:59;0.10;;;0.10;;
60896;SDS011;46749;32.932;-117.130;2023-04-29T07:37:25;0.13;;;0.13;;
60896;SDS011;46749;32.932;-117.130;2023-04-29T07:39:52;0.20;;;0.20;;
60896;SDS011;46749;32.932;-117.130;2023-04-29T07:42:18;0.35;;;0.20;;
60896;SDS011;46749;32.932;-117.130;2023-04-29T07:44:44;0.20;;;0.20;;
60896;SDS011;46749;32.932;-117.130;2023-04-29T07:47:11;0.20;;;0.20;;
60896;SDS011;46749;32.932;-117.130;2023-04-29T07:49:37;0.10;;;0.10;;
60896;SDS011;46749;32.932;-117.130;2023-04-29T07:52:03;0.10;;;0.10;;
60896;SDS011;46749;32.932;-117.130;2023-04-29T07:54:30;0.10;;;0.10;;
60896;SDS011;46749;32.932;-117.130;2023-04-29T07:56:56;0.20;;;0.10;;
60896;SDS011;46749;32.932;-117.130;2023-04-29T07:59:23;0.20;;;0.20;;
60896;SDS011;46749;32.932;-117.130;2023-04-29T08:01:49;0.20;;;0.20;;
60896;SDS011;46749;32.932;-117.130;2023-04-29T08:04:16;0.10;;;0.10;;
60896;SDS011;46749;32.932;-117.130;2023-04-29T08:06:43;0.20;;;0.20;;
60896;SDS011;46749;32.932;-117.130;2023-04-29T08:09:09;0.45;;;0.10;;
60896;SDS011;46749;32.932;-117.130;2023-04-29T08:11:36;0.10;;;0.10;;
60896;SDS011;46749;32.932;-117.130;2023-04-29T08:14:04;0.10;;;0.10;;
60896;SDS011;46749;32.932;-117.130;2023-04-29T08:16:30;0.10;;;0.10;;
60896;SDS011;46749;32.932;-117.130;2023-04-29T08:18:57;0.15;;;0.15;;
60896;SDS011;46749;32.932;-117.130;2023-04-29T08:21:23;0.20;;;0.20;;
60896;SDS011;46749;32.932;-117.130;2023-04-29T08:23:49;0.25;;;0.10;;
60896;SDS011;46749;32.932;-117.130;2023-04-29T08:26:16;0.10;;;0.10;;
60896;SDS011;46749;32.932;-117.130;2023-04-29T08:28:42;0.10;;;0.10;;
60896;SDS011;46749;32.932;-117.130;2023-04-29T08:31:14;0.10;;;0.10;;
60896;SDS011;46749;32.932;-117.130;2023-04-29T08:36:10;0.13;;;0.10;;
60896;SDS011;46749;32.932;-117.130;2023-04-29T08:38:37;0.60;;;0.20;;
60896;SDS011;46749;32.932;-117.130;2023-04-29T08:41:03;0.17;;;0.17;;
60896;SDS011;46749;32.932;-117.130;2023-04-29T08:43:32;0.30;;;0.20;;
60896;SDS011;46749;32.932;-117.130;2023-04-29T08:46:04;0.10;;;0.10;;
60896;SDS011;46749;32.932;-117.130;2023-04-29T08:48:32;0.10;;;0.10;;
60896;SDS011;46749;32.932;-117.130;2023-04-29T08:51:00;0.20;;;0.20;;
60896;SDS011;46749;32.932;-117.130;2023-04-29T08:53:26;0.10;;;0.10;;
60896;SDS011;46749;32.932;-117.130;2023-04-29T08:55:53;0.10;;;0.10;;
60896;SDS011;46749;32.932;-117.130;2023-04-29T08:58:20;0.10;;;0.10;;
60896;SDS011;46749;32.932;-117.130;2023-04-29T09:00:47;0.10;;;0.10;;
60896;SDS011;46749;32.932;-117.130;2023-04-29T09:03:16;0.30;;;0.15;;
60896;SDS011;46749;32.932;-117.130;2023-04-29T09:05:43;0.10;;;0.10;;
60896;SDS011;46749;32.932;-117.130;2023-04-29T09:08:13;0.10;;;0.10;;
60896;SDS011;46749;32.932;-117.130;2023-04-29T09:10:41;0.10;;;0.10;;
60896;SDS011;46749;32.932;-117.130;2023-04-29T09:13:08;0.15;;;0.15;;
60896;SDS011;46749;32.932;-117.130;2023-04-29T09:15:46;0.10;;;0.10;;
60896;SDS011;46749;32.932;-117.130;2023-04-29T09:18:39;0.22;;;0.10;;
60896;SDS011;46749;32.932;-117.130;2023-04-29T09:21:20;0.10;;;0.10;;
60896;SDS011;46749;32.932;-117.130;2023-04-29T09:23:49;0.22;;;0.10;;
60896;SDS011;46749;32.932;-117.130;2023-04-29T09:26:26;0.20;;;0.20;;
60896;SDS011;46749;32.932;-117.130;2023-04-29T09:29:11;0.10;;;0.10;;
60896;SDS011;46749;32.932;-117.130;2023-04-29T09:31:43;0.10;;;0.10;;
60896;SDS011;46749;32.932;-117.130;2023-04-29T09:34:10;0.30;;;0.20;;
60896;SDS011;46749;32.932;-117.130;2023-04-29T09:36:38;0.20;;;0.20;;
60896;SDS011;46749;32.932;-117.130;2023-04-29T09:39:14;0.20;;;0.20;;
60896;SDS011;46749;32.932;-117.130;2023-04-29T09:44:20;0.47;;;0.40;;
60896;SDS011;46749;32.932;-117.130;2023-04-29T09:46:55;0.20;;;0.20;;
60896;SDS011;46749;32.932;-117.130;2023-04-29T09:49:26;0.38;;;0.10;;
60896;SDS011;46749;32.932;-117.130;2023-04-29T09:51:56;0.20;;;0.20;;
60896;SDS011;46749;32.932;-117.130;2023-04-29T09:54:29;0.30;;;0.20;;
60896;SDS011;46749;32.932;-117.130;2023-04-29T09:57:00;0.10;;;0.10;;
60896;SDS011;46749;32.932;-117.130;2023-04-29T09:59:30;0.10;;;0.10;;
60896;SDS011;46749;32.932;-117.130;2023-04-29T10:02:01;0.17;;;0.17;;
60896;SDS011;46749;32.932;-117.130;2023-04-29T10:04:34;0.65;;;0.20;;
60896;SDS011;46749;32.932;-117.130;2023-04-29T10:07:04;0.20;;;0.20;;
60896;SDS011;46749;32.932;-117.130;2023-04-29T10:09:31;0.10;;;0.10;;
60896;SDS011;46749;32.932;-117.130;2023-04-29T10:11:58;0.15;;;0.15;;
60896;SDS011;46749;32.932;-117.130;2023-04-29T10:14:26;0.30;;;0.10;;
60896;SDS011;46749;32.932;-117.130;2023-04-29T10:17:01;0.20;;;0.20;;
60896;SDS011;46749;32.932;-117.130;2023-04-29T10:19:38;0.15;;;0.15;;
60896;SDS011;46749;32.932;-117.130;2023-04-29T10:22:15;0.10;;;0.10;;
60896;SDS011;46749;32.932;-117.130;2023-04-29T10:24:52;0.17;;;0.17;;
60896;SDS011;46749;32.932;-117.130;2023-04-29T10:27:19;0.10;;;0.10;;
60896;SDS011;46749;32.932;-117.130;2023-04-29T10:29:48;0.10;;;0.10;;
60896;SDS011;46749;32.932;-117.130;2023-04-29T10:32:17;0.10;;;0.10;;
60896;SDS011;46749;32.932;-117.130;2023-04-29T10:34:46;0.10;;;0.10;;
60896;SDS011;46749;32.932;-117.130;2023-04-29T10:37:13;0.25;;;0.13;;
60896;SDS011;46749;32.932;-117.130;2023-04-29T10:42:47;0.32;;;0.20;;
60896;SDS011;46749;32.932;-117.130;2023-04-29T10:53:34;0.10;;;0.10;;
60896;SDS011;46749;32.932;-117.130;2023-04-29T10:56:04;0.20;;;0.20;;
60896;SDS011;46749;32.932;-117.130;2023-04-29T11:01:01;0.10;;;0.10;;
60896;SDS011;46749;32.932;-117.130;2023-04-29T11:09:11;0.10;;;0.10;;
60896;SDS011;46749;32.932;-117.130;2023-04-29T11:11:55;0.10;;;0.10;;
60896;SDS011;46749;32.932;-117.130;2023-04-29T11:14:34;0.10;;;0.10;;
60896;SDS011;46749;32.932;-117.130;2023-04-29T11:17:04;0.10;;;0.10;;
60896;SDS011;46749;32.932;-117.130;2023-04-29T11:19:46;0.10;;;0.10;;
60896;SDS011;46749;32.932;-117.130;2023-04-29T11:27:17;0.10;;;0.10;;
60896;SDS011;46749;32.932;-117.130;2023-04-29T11:29:48;0.10;;;0.10;;
60896;SDS011;46749;32.932;-117.130;2023-04-29T11:32:18;0.10;;;0.10;;
60896;SDS011;46749;32.932;-117.130;2023-04-29T11:34:46;0.10;;;0.10;;
60896;SDS011;46749;32.932;-117.130;2023-04-29T11:37:17;0.10;;;0.10;;
60896;SDS011;46749;32.932;-117.130;2023-04-29T11:39:45;0.10;;;0.10;;
60896;SDS011;46749;32.932;-117.130;2023-04-29T11:42:11;0.10;;;0.10;;
60896;SDS011;46749;32.932;-117.130;2023-04-29T11:44:37;0.17;;;0.10;;
60896;SDS011;46749;32.932;-117.130;2023-04-29T11:47:07;0.20;;;0.15;;
60896;SDS011;46749;32.932;-117.130;2023-04-29T11:49:33;0.13;;;0.13;;
60896;SDS011;46749;32.932;-117.130;2023-04-29T11:52:02;0.28;;;0.20;;
60896;SDS011;46749;32.932;-117.130;2023-04-29T11:54:28;0.10;;;0.10;;
60896;SDS011;46749;32.932;-117.130;2023-04-29T11:56:55;0.10;;;0.10;;
60896;SDS011;46749;32.932;-117.130;2023-04-29T11:59:23;0.20;;;0.10;;
60896;SDS011;46749;32.932;-117.130;2023-04-29T12:01:49;0.32;;;0.20;;
60896;SDS011;46749;32.932;-117.130;2023-04-29T12:04:16;0.10;;;0.10;;
60896;SDS011;46749;32.932;-117.130;2023-04-29T12:06:44;0.10;;;0.10;;
60896;SDS011;46749;32.932;-117.130;2023-04-29T12:09:11;0.10;;;0.10;;
60896;SDS011;46749;32.932;-117.130;2023-04-29T12:11:37;0.20;;;0.20;;
60896;SDS011;46749;32.932;-117.130;2023-04-29T12:14:04;0.10;;;0.10;;
60896;SDS011;46749;32.932;-117.130;2023-04-29T12:16:33;0.40;;;0.20;;
60896;SDS011;46749;32.932;-117.130;2023-04-29T12:19:00;0.10;;;0.10;;
60896;SDS011;46749;32.932;-117.130;2023-04-29T12:21:27;0.15;;;0.10;;
60896;SDS011;46749;32.932;-117.130;2023-04-29T12:23:53;0.10;;;0.10;;
60896;SDS011;46749;32.932;-117.130;2023-04-29T12:26:23;0.10;;;0.10;;
60896;SDS011;46749;32.932;-117.130;2023-04-29T12:28:55;0.10;;;0.10;;
60896;SDS011;46749;32.932;-117.130;2023-04-29T12:31:32;0.10;;;0.10;;
60896;SDS011;46749;32.932;-117.130;2023-04-29T12:34:04;0.57;;;0.10;;
60896;SDS011;46749;32.932;-117.130;2023-04-29T12:36:31;0.10;;;0.10;;
60896;SDS011;46749;32.932;-117.130;2023-04-29T12:38:58;0.40;;;0.20;;
60896;SDS011;46749;32.932;-117.130;2023-04-29T12:41:38;0.17;;;0.10;;
60896;SDS011;46749;32.932;-117.130;2023-04-29T12:44:05;0.10;;;0.10;;
60896;SDS011;46749;32.932;-117.130;2023-04-29T12:46:39;0.20;;;0.20;;
60896;SDS011;46749;32.932;-117.130;2023-04-29T12:49:06;0.22;;;0.17;;
60896;SDS011;46749;32.932;-117.130;2023-04-29T12:51:33;0.10;;;0.10;;
60896;SDS011;46749;32.932;-117.130;2023-04-29T12:54:01;0.10;;;0.10;;
60896;SDS011;46749;32.932;-117.130;2023-04-29T12:56:29;0.17;;;0.10;;
60896;SDS011;46749;32.932;-117.130;2023-04-29T12:58:56;0.10;;;0.10;;
60896;SDS011;46749;32.932;-117.130;2023-04-29T13:01:30;0.50;;;0.50;;
60896;SDS011;46749;32.932;-117.130;2023-04-29T13:04:16;0.15;;;0.13;;
60896;SDS011;46749;32.932;-117.130;2023-04-29T13:06:42;0.25;;;0.13;;
60896;SDS011;46749;32.932;-117.130;2023-04-29T13:09:09;0.90;;;0.13;;
60896;SDS011;46749;32.932;-117.130;2023-04-29T13:11:39;0.10;;;0.10;;
60896;SDS011;46749;32.932;-117.130;2023-04-29T13:14:05;0.85;;;0.20;;
60896;SDS011;46749;32.932;-117.130;2023-04-29T13:16:32;0.65;;;0.20;;
60896;SDS011;46749;32.932;-117.130;2023-04-29T13:18:59;0.10;;;0.10;;
60896;SDS011;46749;32.932;-117.130;2023-04-29T13:21:26;0.20;;;0.15;;
60896;SDS011;46749;32.932;-117.130;2023-04-29T13:23:53;0.17;;;0.17;;
60896;SDS011;46749;32.932;-117.130;2023-04-29T13:26:19;0.10;;;0.10;;
60896;SDS011;46749;32.932;-117.130;2023-04-29T13:28:45;0.10;;;0.10;;
60896;SDS011;46749;32.932;-117.130;2023-04-29T13:31:12;0.10;;;0.10;;
60896;SDS011;46749;32.932;-117.130;2023-04-29T13:33:38;0.43;;;0.17;;
60896;SDS011;46749;32.932;-117.130;2023-04-29T13:36:04;0.10;;;0.10;;
60896;SDS011;46749;32.932;-117.130;2023-04-29T13:38:31;0.13;;;0.13;;
60896;SDS011;46749;32.932;-117.130;2023-04-29T13:40:57;0.47;;;0.20;;
60896;SDS011;46749;32.932;-117.130;2023-04-29T13:43:23;0.10;;;0.10;;
60896;SDS011;46749;32.932;-117.130;2023-04-29T13:45:50;0.10;;;0.10;;
60896;SDS011;46749;32.932;-117.130;2023-04-29T13:48:16;0.30;;;0.13;;
60896;SDS011;46749;32.932;-117.130;2023-04-29T13:50:43;0.15;;;0.10;;
60896;SDS011;46749;32.932;-117.130;2023-04-29T13:53:10;0.10;;;0.10;;
60896;SDS011;46749;32.932;-117.130;2023-04-29T13:55:36;0.75;;;0.17;;
60896;SDS011;46749;32.932;-117.130;2023-04-29T13:58:02;0.20;;;0.10;;
60896;SDS011;46749;32.932;-117.130;2023-04-29T14:00:29;0.10;;;0.10;;
60896;SDS011;46749;32.932;-117.130;2023-04-29T14:02:55;0.10;;;0.10;;
60896;SDS011;46749;32.932;-117.130;2023-04-29T14:05:21;0.32;;;0.20;;
60896;SDS011;46749;32.932;-117.130;2023-04-29T14:07:47;0.10;;;0.10;;
60896;SDS011;46749;32.932;-117.130;2023-04-29T14:10:14;0.10;;;0.10;;
60896;SDS011;46749;32.932;-117.130;2023-04-29T14:12:40;0.10;;;0.10;;
60896;SDS011;46749;32.932;-117.130;2023-04-29T14:15:06;0.20;;;0.20;;
60896;SDS011;46749;32.932;-117.130;2023-04-29T14:17:33;0.15;;;0.15;;
60896;SDS011;46749;32.932;-117.130;2023-04-29T14:20:00;0.20;;;0.20;;
60896;SDS011;46749;32.932;-117.130;2023-04-29T14:22:27;0.10;;;0.10;;
60896;SDS011;46749;32.932;-117.130;2023-04-29T14:24:53;0.10;;;0.10;;
60896;SDS011;46749;32.932;-117.130;2023-04-29T14:27:19;0.25;;;0.20;;
60896;SDS011;46749;32.932;-117.130;2023-04-29T14:29:45;0.15;;;0.15;;
60896;SDS011;46749;32.932;-117.130;2023-04-29T14:32:12;0.20;;;0.20;;
60896;SDS011;46749;32.932;-117.130;2023-04-29T14:34:38;0.10;;;0.10;;
60896;SDS011;46749;32.932;-117.130;2023-04-29T14:37:05;0.10;;;0.10;;
60896;SDS011;46749;32.932;-117.130;2023-04-29T14:39:31;0.20;;;0.17;;
60896;SDS011;46749;32.932;-117.130;2023-04-29T14:41:57;1.30;;;0.22;;
60896;SDS011;46749;32.932;-117.130;2023-04-29T14:44:23;0.13;;;0.13;;
60896;SDS011;46749;32.932;-117.130;2023-04-29T14:46:49;0.20;;;0.20;;
60896;SDS011;46749;32.932;-117.130;2023-04-29T14:49:16;0.30;;;0.30;;